createdAt,value
2019-01-27T00:00:38.070Z,13.23
2019-01-27T00:03:12.937Z,16.20
2019-01-27T00:05:47.564Z,15.30
2019-01-27T00:08:20.662Z,14.97
2019-01-27T00:10:53.804Z,18.40
2019-01-27T00:13:27.087Z,19.70
2019-01-27T00:16:01.694Z,13.13
2019-01-27T00:18:36.477Z,16.70
2019-01-27T00:21:10.047Z,14.23
2019-01-27T00:23:43.184Z,13.17
2019-01-27T00:26:16.477Z,16.53
2019-01-27T00:28:51.247Z,12.13
2019-01-27T00:31:24.429Z,17.03
2019-01-27T00:33:58.238Z,16.60
2019-01-27T00:36:32.527Z,14.73
2019-01-27T00:39:07.373Z,15.70
2019-01-27T00:41:41.860Z,14.37
2019-01-27T00:44:16.277Z,13.47
2019-01-27T00:46:51.707Z,13.60
2019-01-27T00:49:24.790Z,22.57
2019-01-27T00:51:59.685Z,13.87
2019-01-27T00:54:34.534Z,17.23
2019-01-27T00:57:07.963Z,17.93
2019-01-27T00:59:41.638Z,14.50
2019-01-27T01:02:14.831Z,18.93
2019-01-27T01:04:47.904Z,18.73
2019-01-27T01:07:21.184Z,15.40
2019-01-27T01:09:55.753Z,17.60
2019-01-27T01:12:28.725Z,22.07
2019-01-27T01:15:03.623Z,14.67
2019-01-27T01:17:37.655Z,12.43
2019-01-27T01:20:16.753Z,13.27
2019-01-27T01:22:51.323Z,35.43
2019-01-27T01:25:25.885Z,33.80
2019-01-27T01:28:01.121Z,26.50
2019-01-27T01:30:35.239Z,30.87
2019-01-27T01:33:08.594Z,31.73
2019-01-27T01:35:42.075Z,21.93
2019-01-27T01:38:15.238Z,19.43
2019-01-27T01:40:49.723Z,15.63
2019-01-27T01:43:24.302Z,22.33
2019-01-27T01:45:57.654Z,22.00
2019-01-27T01:48:31.300Z,24.60
2019-01-27T01:51:07.185Z,27.77
2019-01-27T01:53:42.445Z,19.23
2019-01-27T01:56:20.953Z,20.27
2019-01-27T01:58:53.914Z,22.27
2019-01-27T02:01:27.287Z,24.60
2019-01-27T02:04:02.792Z,20.47
2019-01-27T02:06:36.892Z,19.70
2019-01-27T02:09:16.338Z,19.53
2019-01-27T02:11:49.410Z,22.93
2019-01-27T02:14:23.927Z,29.43
2019-01-27T02:17:00.026Z,23.70
2019-01-27T02:19:34.292Z,19.57
2019-01-27T02:22:07.525Z,20.97
2019-01-27T02:24:42.073Z,23.83
2019-01-27T02:27:16.408Z,25.90
2019-01-27T02:29:49.724Z,22.98
2019-01-27T02:32:24.648Z,21.43
2019-01-27T02:34:58.033Z,22.07
2019-01-27T02:37:32.754Z,27.23
2019-01-27T02:40:09.148Z,30.67
2019-01-27T02:42:45.402Z,33.60
2019-01-27T02:45:18.700Z,32.73
2019-01-27T02:47:51.942Z,30.67
2019-01-27T02:50:26.000Z,33.60
2019-01-27T02:53:01.158Z,29.60
2019-01-27T02:55:34.326Z,27.47
2019-01-27T02:58:09.749Z,28.97
2019-01-27T03:00:46.977Z,26.97
2019-01-27T03:03:20.746Z,25.47
2019-01-27T03:06:05.312Z,25.43
2019-01-27T03:08:51.716Z,26.57
2019-01-27T03:11:30.668Z,32.07
2019-01-27T03:14:04.691Z,42.60
2019-01-27T03:16:38.059Z,33.93
2019-01-27T03:19:11.329Z,33.63
2019-01-27T03:21:45.703Z,25.10
2019-01-27T03:24:20.044Z,26.50
2019-01-27T03:26:53.293Z,21.27
2019-01-27T03:29:26.997Z,21.87
2019-01-27T03:32:02.928Z,24.93
2019-01-27T03:34:37.602Z,21.33
2019-01-27T03:37:14.324Z,21.02
2019-01-27T03:39:49.849Z,28.00
2019-01-27T03:42:23.301Z,21.80
2019-01-27T03:44:58.310Z,22.10
2019-01-27T03:47:43.588Z,25.30
2019-01-27T03:50:17.907Z,22.23
2019-01-27T03:52:51.839Z,23.20
2019-01-27T03:55:28.898Z,21.77
2019-01-27T03:58:02.055Z,23.17
2019-01-27T04:00:36.519Z,22.87
2019-01-27T04:03:09.692Z,22.73
2019-01-27T04:05:43.951Z,24.47
2019-01-27T04:08:18.236Z,23.80
2019-01-27T04:10:53.228Z,24.03
2019-01-27T04:13:29.417Z,25.60
2019-01-27T04:16:04.119Z,21.13
2019-01-27T04:18:38.261Z,19.20
2019-01-27T04:21:13.641Z,20.43
2019-01-27T04:23:47.710Z,18.97
2019-01-27T04:26:22.700Z,18.77
2019-01-27T04:28:56.724Z,19.50
2019-01-27T04:31:30.851Z,22.53
2019-01-27T04:34:06.625Z,21.77
2019-01-27T04:36:40.875Z,23.83
2019-01-27T04:39:16.501Z,21.33
2019-01-27T04:41:49.604Z,22.50
2019-01-27T04:44:22.828Z,20.87
2019-01-27T04:46:58.088Z,18.60
2019-01-27T04:49:31.133Z,18.87
2019-01-27T04:52:06.343Z,15.00
2019-01-27T04:54:39.237Z,15.43
2019-01-27T04:57:19.643Z,16.30
2019-01-27T04:59:52.885Z,17.30
2019-01-27T05:02:28.227Z,16.20
2019-01-27T05:05:02.538Z,17.00
2019-01-27T05:07:35.746Z,16.17
2019-01-27T05:10:11.684Z,17.73
2019-01-27T05:12:46.419Z,16.70
2019-01-27T05:15:27.298Z,16.03
2019-01-27T05:18:02.506Z,16.70
2019-01-27T05:20:35.564Z,16.80
2019-01-27T05:23:09.030Z,19.50
2019-01-27T05:25:42.412Z,16.17
2019-01-27T05:28:16.758Z,17.20
2019-01-27T05:30:50.379Z,21.70
2019-01-27T05:33:23.519Z,20.02
2019-01-27T05:35:56.967Z,19.00
2019-01-27T05:38:31.076Z,17.67
2019-01-27T05:41:04.276Z,18.83
2019-01-27T05:43:38.608Z,18.97
2019-01-27T05:46:13.950Z,19.03
2019-01-27T05:48:47.573Z,17.17
2019-01-27T05:51:21.314Z,16.03
2019-01-27T05:53:54.343Z,18.13
2019-01-27T05:56:27.547Z,19.23
2019-01-27T05:59:02.417Z,18.23
2019-01-27T06:01:37.548Z,17.20
2019-01-27T06:04:10.578Z,17.17
2019-01-27T06:06:43.961Z,19.15
2019-01-27T06:09:18.026Z,17.17
2019-01-27T06:11:51.360Z,17.70
2019-01-27T06:14:24.478Z,25.73
2019-01-27T06:16:58.826Z,21.10
2019-01-27T06:19:31.818Z,22.07
2019-01-27T06:22:06.372Z,23.13
2019-01-27T06:24:40.733Z,20.87
2019-01-27T06:27:15.285Z,21.63
2019-01-27T06:29:48.366Z,28.30
2019-01-27T06:32:43.581Z,30.63
2019-01-27T06:35:17.902Z,29.60
2019-01-27T06:37:50.996Z,27.17
2019-01-27T06:40:24.129Z,23.07
2019-01-27T06:42:57.268Z,25.20
2019-01-27T06:45:33.252Z,20.40
2019-01-27T06:48:06.480Z,21.00
2019-01-27T06:50:39.654Z,22.47
2019-01-27T06:53:13.872Z,23.07
2019-01-27T06:55:47.927Z,21.00
2019-01-27T06:58:22.340Z,17.57
2019-01-27T07:01:20.238Z,17.00
2019-01-27T07:04:13.608Z,17.43
2019-01-27T07:07:12.435Z,16.73
2019-01-27T07:10:00.880Z,17.73
2019-01-27T07:12:50.530Z,17.27
2019-01-27T07:15:46.574Z,19.77
2019-01-27T07:18:36.965Z,19.33
2019-01-27T07:21:23.965Z,16.20
2019-01-27T07:24:25.851Z,21.40
2019-01-27T07:27:18.186Z,17.70
2019-01-27T07:30:08.382Z,17.57
2019-01-27T07:33:11.678Z,17.67
2019-01-27T07:36:13.017Z,20.00
2019-01-27T07:39:02.928Z,21.33
2019-01-27T07:42:00.582Z,17.10
2019-01-27T07:44:42.964Z,18.53
2019-01-27T07:47:52.623Z,19.53
2019-01-27T07:50:48.258Z,18.37
2019-01-27T07:53:36.095Z,20.70
2019-01-27T07:56:26.595Z,18.40
2019-01-27T07:59:07.018Z,18.40
2019-01-27T08:01:48.246Z,18.40
2019-01-27T08:04:48.752Z,16.63
2019-01-27T08:07:40.087Z,19.07
2019-01-27T08:10:47.575Z,21.17
2019-01-27T08:13:48.416Z,18.23
2019-01-27T08:16:40.770Z,17.50
2019-01-27T08:19:25.818Z,18.83
2019-01-27T08:22:21.241Z,20.63
2019-01-27T08:25:15.370Z,24.80
2019-01-27T08:28:05.935Z,22.97
2019-01-27T08:30:52.017Z,24.07
2019-01-27T08:33:53.673Z,24.77
2019-01-27T08:36:58.708Z,23.33
2019-01-27T08:39:54.126Z,23.93
2019-01-27T08:42:58.043Z,25.87
2019-01-27T08:45:45.611Z,27.17
2019-01-27T08:48:21.497Z,24.70
2019-01-27T08:50:54.657Z,23.63
2019-01-27T08:53:27.772Z,24.33
2019-01-27T08:56:03.425Z,21.13
2019-01-27T08:58:36.590Z,26.67
2019-01-27T09:01:40.460Z,23.67
2019-01-27T09:04:21.539Z,20.40
2019-01-27T09:07:30.894Z,22.17
2019-01-27T09:10:22.286Z,25.95
2019-01-27T09:13:16.789Z,22.37
2019-01-27T09:16:04.900Z,22.87
2019-01-27T09:18:52.649Z,21.52
2019-01-27T09:21:42.553Z,20.80
2019-01-27T09:24:34.373Z,21.63
2019-01-27T09:27:33.798Z,19.90
2019-01-27T09:30:36.046Z,19.97
2019-01-27T09:33:23.203Z,21.67
2019-01-27T09:36:17.000Z,23.70
2019-01-27T09:39:05.146Z,24.10
2019-01-27T09:41:53.849Z,23.43
2019-01-27T09:44:53.980Z,24.43
2019-01-27T09:47:43.860Z,21.47
2019-01-27T09:50:35.387Z,20.90
2019-01-27T09:53:21.597Z,22.97
2019-01-27T09:56:11.675Z,23.43
2019-01-27T09:58:53.585Z,23.47
2019-01-27T10:01:43.877Z,25.07
2019-01-27T10:04:38.262Z,26.47
2019-01-27T10:07:32.948Z,23.33
2019-01-27T10:10:23.752Z,25.90
2019-01-27T10:13:21.320Z,26.13
2019-01-27T10:16:12.661Z,26.03
2019-01-27T10:19:02.642Z,26.97
2019-01-27T10:21:49.433Z,25.50
2019-01-27T10:24:39.439Z,25.37
2019-01-27T10:27:32.426Z,24.87
2019-01-27T10:30:27.906Z,26.10
2019-01-27T10:33:19.805Z,25.00
2019-01-27T10:36:13.370Z,27.87
2019-01-27T10:38:59.301Z,27.90
2019-01-27T10:41:39.806Z,28.80
2019-01-27T10:44:28.206Z,27.70
2019-01-27T10:47:18.202Z,29.70
2019-01-27T10:50:01.924Z,29.43
2019-01-27T10:53:14.569Z,32.63
2019-01-27T10:56:07.084Z,39.10
2019-01-27T10:58:58.258Z,43.27
2019-01-27T11:02:03.137Z,42.70
2019-01-27T11:04:53.008Z,44.47
2019-01-27T11:07:35.132Z,50.97
2019-01-27T11:10:29.064Z,40.83
2019-01-27T11:13:27.914Z,38.13
2019-01-27T11:16:18.202Z,36.37
2019-01-27T11:19:15.267Z,35.00
2019-01-27T11:22:12.731Z,35.07
2019-01-27T11:24:56.668Z,36.50
2019-01-27T11:27:41.825Z,29.77
2019-01-27T11:30:37.966Z,30.23
2019-01-27T11:33:27.757Z,42.87
2019-01-27T11:36:27.871Z,40.67
2019-01-27T11:39:23.168Z,45.87
2019-01-27T11:42:17.295Z,54.67
2019-01-27T11:45:01.716Z,60.43
2019-01-27T11:48:00.960Z,57.13
2019-01-27T11:50:47.699Z,60.23
2019-01-27T11:53:20.973Z,58.73
2019-01-27T11:55:54.342Z,61.63
2019-01-27T11:58:27.480Z,58.10
2019-01-27T12:01:03.067Z,55.27
2019-01-27T12:03:36.116Z,57.07
2019-01-27T12:06:16.165Z,44.23
2019-01-27T12:08:51.514Z,49.07
2019-01-27T12:11:24.806Z,47.00
2019-01-27T12:13:59.357Z,52.00
2019-01-27T12:16:33.674Z,42.67
2019-01-27T12:19:09.991Z,48.13
2019-01-27T12:21:46.325Z,48.28
2019-01-27T12:24:19.600Z,43.27
2019-01-27T12:26:56.231Z,46.47
2019-01-27T12:29:29.137Z,46.40
2019-01-27T12:32:02.849Z,56.33
2019-01-27T12:34:37.979Z,58.23
2019-01-27T12:37:18.425Z,53.97
2019-01-27T12:39:52.029Z,56.70
2019-01-27T12:42:25.437Z,46.80
2019-01-27T12:44:58.814Z,53.95
2019-01-27T12:47:32.752Z,53.13
2019-01-27T12:50:06.342Z,53.10
2019-01-27T12:52:40.003Z,49.67
2019-01-27T12:55:14.476Z,50.20
2019-01-27T12:57:49.028Z,48.47
2019-01-27T13:00:28.535Z,51.43
2019-01-27T13:03:01.763Z,57.40
2019-01-27T13:05:36.569Z,53.10
2019-01-27T13:08:12.078Z,49.90
2019-01-27T13:10:45.592Z,50.03
2019-01-27T13:13:21.607Z,50.37
2019-01-27T13:15:55.004Z,50.93
2019-01-27T13:18:29.314Z,49.70
2019-01-27T13:21:02.732Z,45.17
2019-01-27T13:23:36.125Z,40.90
2019-01-27T13:26:09.270Z,39.70
2019-01-27T13:28:42.956Z,40.10
2019-01-27T13:31:18.747Z,41.47
2019-01-27T13:33:52.243Z,38.00
2019-01-27T13:36:27.914Z,39.47
2019-01-27T13:39:01.746Z,44.03
2019-01-27T13:41:38.246Z,47.80
2019-01-27T13:44:11.324Z,50.30
2019-01-27T13:46:44.557Z,52.87
2019-01-27T13:49:19.280Z,56.67
2019-01-27T13:51:53.628Z,51.65
2019-01-27T13:54:26.720Z,49.67
2019-01-27T13:57:02.186Z,49.50
2019-01-27T13:59:35.400Z,48.77
2019-01-27T14:02:09.839Z,48.30
2019-01-27T14:04:48.443Z,44.30
2019-01-27T14:07:19.381Z,45.97
2019-01-27T14:09:53.108Z,41.27
2019-01-27T14:12:27.837Z,39.00
2019-01-27T14:15:12.662Z,39.23
2019-01-27T14:17:43.384Z,35.43
2019-01-27T14:20:17.945Z,37.40
2019-01-27T14:22:52.254Z,34.20
2019-01-27T14:25:27.971Z,35.23
2019-01-27T14:28:01.489Z,33.50
2019-01-27T14:30:37.111Z,33.73
2019-01-27T14:33:10.612Z,38.87
2019-01-27T14:35:45.768Z,36.50
2019-01-27T14:38:19.661Z,41.30
2019-01-27T14:40:52.961Z,38.07
2019-01-27T14:43:26.004Z,43.23
2019-01-27T14:46:00.084Z,44.10
2019-01-27T14:48:34.561Z,38.60
2019-01-27T14:51:07.790Z,36.77
2019-01-27T14:53:44.635Z,36.77
2019-01-27T14:56:18.501Z,38.37
2019-01-27T14:58:52.239Z,36.70
2019-01-27T15:01:26.545Z,37.57
2019-01-27T15:04:01.046Z,32.13
2019-01-27T15:06:41.277Z,32.00
2019-01-27T15:09:14.542Z,33.93
2019-01-27T15:11:49.189Z,32.37
2019-01-27T15:14:22.219Z,34.10
2019-01-27T15:16:55.361Z,31.23
2019-01-27T15:19:28.531Z,30.57
2019-01-27T15:22:04.279Z,31.62
2019-01-27T15:24:37.982Z,29.03
2019-01-27T15:27:18.064Z,32.77
2019-01-27T15:29:51.405Z,32.63
2019-01-27T15:32:25.975Z,34.40
2019-01-27T15:34:59.743Z,31.27
2019-01-27T15:37:38.983Z,30.50
2019-01-27T15:40:13.050Z,30.63
2019-01-27T15:42:46.521Z,32.17
2019-01-27T15:45:21.943Z,29.92
2019-01-27T15:48:06.276Z,28.17
2019-01-27T15:50:39.648Z,30.43
2019-01-27T15:53:15.537Z,29.03
2019-01-27T15:55:48.833Z,30.83
2019-01-27T15:58:22.218Z,28.93
2019-01-27T16:00:56.295Z,29.83
2019-01-27T16:03:29.672Z,27.67
2019-01-27T16:06:02.749Z,26.63
2019-01-27T16:08:36.179Z,21.97
2019-01-27T16:11:09.278Z,24.00
2019-01-27T16:13:42.944Z,22.77
2019-01-27T16:16:17.169Z,23.97
2019-01-27T16:18:50.219Z,22.43
2019-01-27T16:21:23.414Z,20.27
2019-01-27T16:23:58.959Z,21.27
2019-01-27T16:26:32.092Z,19.43
2019-01-27T16:29:06.664Z,22.33
2019-01-27T16:31:47.201Z,25.20
2019-01-27T16:34:29.394Z,25.97
2019-01-27T16:37:04.666Z,22.47
2019-01-27T16:39:39.090Z,23.98
2019-01-27T16:42:13.640Z,23.50
2019-01-27T16:44:47.256Z,25.17
2019-01-27T16:47:23.601Z,22.83
2019-01-27T16:49:57.291Z,20.00
2019-01-27T16:52:31.724Z,23.65
2019-01-27T16:55:04.929Z,19.77
2019-01-27T16:57:38.097Z,21.03
2019-01-27T17:00:15.386Z,22.87
2019-01-27T17:02:49.700Z,20.72
2019-01-27T17:05:25.871Z,18.23
2019-01-27T17:07:59.667Z,18.83
2019-01-27T17:10:35.831Z,19.40
2019-01-27T17:13:09.719Z,20.47
2019-01-27T17:15:43.139Z,22.20
2019-01-27T17:18:16.464Z,21.43
2019-01-27T17:20:49.562Z,21.47
2019-01-27T17:23:24.293Z,21.30
2019-01-27T17:26:07.358Z,20.30
2019-01-27T17:28:41.685Z,20.57
2019-01-27T17:31:15.333Z,18.50
2019-01-27T17:33:49.542Z,19.37
2019-01-27T17:36:22.776Z,24.50
2019-01-27T17:38:56.309Z,19.70
2019-01-27T17:41:29.746Z,33.53
2019-01-27T17:44:03.884Z,19.13
2019-01-27T17:46:44.051Z,19.80
2019-01-27T17:49:17.165Z,25.67
2019-01-27T17:51:50.411Z,20.57
2019-01-27T17:54:24.693Z,21.20
2019-01-27T17:57:21.909Z,20.47
2019-01-27T18:00:05.258Z,25.50
2019-01-27T18:02:51.140Z,19.73
2019-01-27T18:05:35.673Z,26.30
2019-01-27T18:08:17.647Z,19.10
2019-01-27T18:10:59.241Z,22.60
2019-01-27T18:13:39.064Z,20.30
2019-01-27T18:16:17.438Z,24.47
2019-01-27T18:18:50.532Z,20.53
2019-01-27T18:21:24.958Z,21.60
2019-01-27T18:23:58.238Z,23.17
2019-01-27T18:26:32.520Z,21.50
2019-01-27T18:29:06.470Z,25.03
2019-01-27T18:31:40.764Z,24.97
2019-01-27T18:34:14.854Z,26.60
2019-01-27T18:36:49.723Z,29.67
2019-01-27T18:39:23.921Z,20.97
2019-01-27T18:41:56.996Z,20.97
2019-01-27T18:44:30.543Z,23.85
2019-01-27T18:47:04.258Z,22.70
2019-01-27T18:49:38.571Z,22.80
2019-01-27T18:52:11.681Z,21.77
2019-01-27T18:55:03.282Z,24.07
2019-01-27T18:57:54.407Z,25.53
2019-01-27T19:00:44.446Z,27.27
2019-01-27T19:03:40.902Z,23.23
2019-01-27T19:06:35.205Z,25.32
2019-01-27T19:09:37.083Z,27.80
2019-01-27T19:12:24.150Z,28.97
2019-01-27T19:15:22.843Z,24.17
2019-01-27T19:18:21.598Z,25.20
2019-01-27T19:21:15.779Z,30.40
2019-01-27T19:24:13.934Z,26.23
2019-01-27T19:27:31.183Z,28.47
2019-01-27T19:30:11.348Z,28.00
2019-01-27T19:32:58.600Z,34.95
2019-01-27T19:35:49.232Z,34.70
2019-01-27T19:38:39.109Z,27.73
2019-01-27T19:41:29.520Z,32.47
2019-01-27T19:44:31.897Z,30.90
2019-01-27T19:47:28.443Z,29.70
2019-01-27T19:50:16.134Z,32.17
2019-01-27T19:53:10.193Z,26.87
2019-01-27T19:56:16.901Z,29.60
2019-01-27T19:59:17.137Z,31.87
2019-01-27T20:02:09.676Z,39.60
2019-01-27T20:05:02.303Z,30.37
2019-01-27T20:07:54.823Z,26.87
2019-01-27T20:10:48.954Z,27.60
2019-01-27T20:13:32.772Z,26.00
2019-01-27T20:16:18.818Z,26.37
2019-01-27T20:19:15.363Z,29.93
2019-01-27T20:22:21.671Z,28.33
2019-01-27T20:25:19.290Z,27.77
2019-01-27T20:28:10.591Z,26.00
2019-01-27T20:31:02.029Z,28.83
2019-01-27T20:33:59.237Z,31.27
2019-01-27T20:36:56.542Z,29.55
2019-01-27T20:39:38.297Z,28.98
2019-01-27T20:42:18.579Z,27.50
2019-01-27T20:45:08.671Z,29.60
2019-01-27T20:48:01.592Z,32.83
2019-01-27T20:50:56.954Z,27.55
2019-01-27T20:53:38.788Z,31.33
2019-01-27T20:56:30.261Z,29.05
2019-01-27T20:59:26.193Z,26.90
2019-01-27T21:02:09.548Z,30.57
2019-01-27T21:04:56.534Z,28.55
2019-01-27T21:07:35.122Z,29.47
2019-01-27T21:10:41.766Z,29.23
2019-01-27T21:13:23.033Z,28.17
2019-01-27T21:16:34.394Z,27.97
2019-01-27T21:19:21.042Z,28.45
2019-01-27T21:21:56.473Z,25.60
2019-01-27T21:24:31.322Z,27.45
2019-01-27T21:27:06.531Z,31.52
2019-01-27T21:29:40.525Z,29.45
2019-01-27T21:32:13.511Z,30.55
2019-01-27T21:34:46.612Z,31.00
2019-01-27T21:37:22.622Z,41.50
2019-01-27T21:39:55.792Z,33.87
2019-01-27T21:42:28.988Z,41.30
2019-01-27T21:45:02.210Z,41.77
2019-01-27T21:47:40.619Z,36.40
2019-01-27T21:50:16.814Z,27.13
2019-01-27T21:52:50.935Z,27.60
2019-01-27T21:55:27.798Z,28.62
2019-01-27T21:58:02.459Z,30.37
2019-01-27T22:00:36.613Z,32.60
2019-01-27T22:03:10.720Z,26.87
2019-01-27T22:05:55.146Z,31.27
2019-01-27T22:08:28.354Z,31.63
2019-01-27T22:11:02.059Z,29.77
2019-01-27T22:13:35.097Z,30.80
2019-01-27T22:16:10.390Z,34.20
2019-01-27T22:18:43.596Z,31.55
2019-01-27T22:21:18.715Z,35.63
2019-01-27T22:23:52.897Z,32.57
2019-01-27T22:26:28.597Z,31.20
2019-01-27T22:29:19.857Z,31.23
2019-01-27T22:31:53.357Z,30.40
2019-01-27T22:34:26.700Z,31.77
2019-01-27T22:37:00.070Z,34.90
2019-01-27T22:39:32.957Z,31.43
2019-01-27T22:42:06.510Z,33.03
2019-01-27T22:44:42.393Z,34.40
2019-01-27T22:47:26.043Z,33.27
2019-01-27T22:49:59.937Z,40.48
2019-01-27T22:52:33.954Z,35.87
2019-01-27T22:55:07.816Z,34.43
2019-01-27T22:57:54.535Z,36.57
2019-01-27T23:01:15.079Z,31.97
2019-01-27T23:03:50.342Z,30.03
2019-01-27T23:06:31.603Z,32.33
2019-01-27T23:09:06.015Z,37.47
2019-01-27T23:11:39.222Z,34.30
2019-01-27T23:14:12.322Z,38.30
2019-01-27T23:16:46.283Z,31.93
2019-01-27T23:19:19.113Z,34.87
2019-01-27T23:21:51.911Z,34.50
2019-01-27T23:24:25.033Z,37.23
2019-01-27T23:26:57.911Z,35.30
2019-01-27T23:29:30.860Z,39.00
2019-01-27T23:32:03.636Z,36.67
2019-01-27T23:34:36.486Z,35.63
2019-01-27T23:37:09.357Z,35.67
2019-01-27T23:39:42.925Z,34.67
2019-01-27T23:42:15.900Z,34.53
2019-01-27T23:44:50.548Z,43.00
2019-01-27T23:47:24.524Z,38.33
2019-01-27T23:49:57.703Z,43.23
2019-01-27T23:52:30.975Z,39.80
2019-01-27T23:55:04.813Z,43.03
2019-01-27T23:57:51.566Z,43.43
